sensor_id;sensor_type;location;lat;lon;timestamp;P1;durP1;ratioP1;P2;durP2;ratioP2
6937;SDS011;40040;42.706;23.372;2023-07-31T00:00:13;4.63;;;4.32;;
6937;SDS011;40040;42.706;23.372;2023-07-31T00:02:40;4.60;;;4.30;;
6937;SDS011;40040;42.706;23.372;2023-07-31T00:05:07;4.85;;;4.53;;
6937;SDS011;40040;42.706;23.372;2023-07-31T00:07:36;4.40;;;4.18;;
6937;SDS011;40040;42.706;23.372;2023-07-31T00:10:03;4.93;;;4.63;;
6937;SDS011;40040;42.706;23.372;2023-07-31T00:12:31;4.55;;;4.18;;
6937;SDS011;40040;42.706;23.372;2023-07-31T00:14:58;4.72;;;4.43;;
6937;SDS011;40040;42.706;23.372;2023-07-31T00:17:25;4.25;;;4.05;;
6937;SDS011;40040;42.706;23.372;2023-07-31T00:19:51;5.00;;;4.70;;
6937;SDS011;40040;42.706;23.372;2023-07-31T00:22:18;4.70;;;4.38;;
6937;SDS011;40040;42.706;23.372;2023-07-31T00:24:46;4.90;;;4.55;;
6937;SDS011;40040;42.706;23.372;2023-07-31T00:27:13;5.18;;;4.68;;
6937;SDS011;40040;42.706;23.372;2023-07-31T00:29:40;5.00;;;4.70;;
6937;SDS011;40040;42.706;23.372;2023-07-31T00:32:07;4.75;;;4.45;;
6937;SDS011;40040;42.706;23.372;2023-07-31T00:34:34;5.20;;;4.80;;
6937;SDS011;40040;42.706;23.372;2023-07-31T00:37:00;5.30;;;4.82;;
6937;SDS011;40040;42.706;23.372;2023-07-31T00:39:27;4.95;;;4.65;;
6937;SDS011;40040;42.706;23.372;2023-07-31T00:41:55;5.40;;;5.10;;
6937;SDS011;40040;42.706;23.372;2023-07-31T00:44:23;5.18;;;4.88;;
6937;SDS011;40040;42.706;23.372;2023-07-31T00:46:50;5.40;;;5.05;;
6937;SDS011;40040;42.706;23.372;2023-07-31T00:49:17;5.20;;;4.90;;
6937;SDS011;40040;42.706;23.372;2023-07-31T00:51:44;5.00;;;4.70;;
6937;SDS011;40040;42.706;23.372;2023-07-31T00:54:11;5.60;;;5.20;;
6937;SDS011;40040;42.706;23.372;2023-07-31T00:56:37;5.88;;;5.35;;
6937;SDS011;40040;42.706;23.372;2023-07-31T00:59:06;6.28;;;5.68;;
6937;SDS011;40040;42.706;23.372;2023-07-31T01:01:33;5.90;;;5.50;;
6937;SDS011;40040;42.706;23.372;2023-07-31T01:03:59;6.72;;;6.05;;
6937;SDS011;40040;42.706;23.372;2023-07-31T01:06:28;6.80;;;6.30;;
6937;SDS011;40040;42.706;23.372;2023-07-31T01:09:03;6.68;;;6.18;;
6937;SDS011;40040;42.706;23.372;2023-07-31T01:11:33;7.25;;;6.70;;
6937;SDS011;40040;42.706;23.372;2023-07-31T01:14:06;8.45;;;7.75;;
6937;SDS011;40040;42.706;23.372;2023-07-31T01:16:33;8.65;;;7.75;;
6937;SDS011;40040;42.706;23.372;2023-07-31T01:18:59;9.50;;;8.70;;
6937;SDS011;40040;42.706;23.372;2023-07-31T01:21:30;10.02;;;8.98;;
6937;SDS011;40040;42.706;23.372;2023-07-31T01:24:22;10.90;;;9.88;;
6937;SDS011;40040;42.706;23.372;2023-07-31T01:26:57;11.65;;;10.45;;
6937;SDS011;40040;42.706;23.372;2023-07-31T01:29:32;11.73;;;10.52;;
6937;SDS011;40040;42.706;23.372;2023-07-31T01:32:04;12.50;;;11.20;;
6937;SDS011;40040;42.706;23.372;2023-07-31T01:34:34;12.80;;;11.60;;
6937;SDS011;40040;42.706;23.372;2023-07-31T01:37:02;13.23;;;11.93;;
6937;SDS011;40040;42.706;23.372;2023-07-31T01:39:29;14.65;;;12.57;;
6937;SDS011;40040;42.706;23.372;2023-07-31T01:41:57;17.60;;;13.77;;
6937;SDS011;40040;42.706;23.372;2023-07-31T01:44:24;16.25;;;13.43;;
6937;SDS011;40040;42.706;23.372;2023-07-31T01:46:51;16.02;;;13.63;;
6937;SDS011;40040;42.706;23.372;2023-07-31T01:49:17;15.98;;;14.27;;
6937;SDS011;40040;42.706;23.372;2023-07-31T01:51:44;15.98;;;14.27;;
6937;SDS011;40040;42.706;23.372;2023-07-31T01:54:11;17.75;;;14.55;;
6937;SDS011;40040;42.706;23.372;2023-07-31T01:56:38;16.60;;;14.80;;
6937;SDS011;40040;42.706;23.372;2023-07-31T01:59:06;17.75;;;15.68;;
6937;SDS011;40040;42.706;23.372;2023-07-31T02:01:33;18.10;;;15.70;;
6937;SDS011;40040;42.706;23.372;2023-07-31T02:04:00;18.33;;;15.80;;
6937;SDS011;40040;42.706;23.372;2023-07-31T02:06:27;18.92;;;16.08;;
6937;SDS011;40040;42.706;23.372;2023-07-31T02:08:53;18.75;;;16.52;;
6937;SDS011;40040;42.706;23.372;2023-07-31T02:11:20;18.27;;;15.90;;
6937;SDS011;40040;42.706;23.372;2023-07-31T02:13:47;19.70;;;16.08;;
6937;SDS011;40040;42.706;23.372;2023-07-31T02:16:15;22.08;;;16.95;;
6937;SDS011;40040;42.706;23.372;2023-07-31T02:18:42;21.05;;;16.75;;
6937;SDS011;40040;42.706;23.372;2023-07-31T02:21:09;18.33;;;15.80;;
6937;SDS011;40040;42.706;23.372;2023-07-31T02:23:35;19.58;;;16.25;;
6937;SDS011;40040;42.706;23.372;2023-07-31T02:26:02;21.00;;;16.52;;
6937;SDS011;40040;42.706;23.372;2023-07-31T02:28:29;19.95;;;16.70;;
6937;SDS011;40040;42.706;23.372;2023-07-31T02:30:56;19.33;;;16.98;;
6937;SDS011;40040;42.706;23.372;2023-07-31T02:33:24;18.10;;;16.02;;
6937;SDS011;40040;42.706;23.372;2023-07-31T02:35:51;20.63;;;17.10;;
6937;SDS011;40040;42.706;23.372;2023-07-31T02:38:18;20.77;;;17.83;;
6937;SDS011;40040;42.706;23.372;2023-07-31T02:40:45;19.58;;;16.58;;
6937;SDS011;40040;42.706;23.372;2023-07-31T02:43:11;21.67;;;17.00;;
6937;SDS011;40040;42.706;23.372;2023-07-31T02:45:38;20.73;;;17.77;;
6937;SDS011;40040;42.706;23.372;2023-07-31T02:48:05;23.15;;;18.58;;
6937;SDS011;40040;42.706;23.372;2023-07-31T02:50:33;21.70;;;17.98;;
6937;SDS011;40040;42.706;23.372;2023-07-31T02:53:01;21.33;;;17.58;;
6937;SDS011;40040;42.706;23.372;2023-07-31T02:55:28;21.90;;;17.50;;
6937;SDS011;40040;42.706;23.372;2023-07-31T02:57:54;25.13;;;18.67;;
6937;SDS011;40040;42.706;23.372;2023-07-31T03:00:21;26.75;;;19.58;;
6937;SDS011;40040;42.706;23.372;2023-07-31T03:02:48;23.88;;;19.98;;
6937;SDS011;40040;42.706;23.372;2023-07-31T03:05:15;24.67;;;19.55;;
6937;SDS011;40040;42.706;23.372;2023-07-31T03:07:43;23.65;;;19.67;;
6937;SDS011;40040;42.706;23.372;2023-07-31T03:10:10;23.08;;;19.77;;
6937;SDS011;40040;42.706;23.372;2023-07-31T03:12:37;25.48;;;20.65;;
6937;SDS011;40040;42.706;23.372;2023-07-31T03:15:04;24.83;;;20.38;;
6937;SDS011;40040;42.706;23.372;2023-07-31T03:17:32;23.67;;;20.25;;
6937;SDS011;40040;42.706;23.372;2023-07-31T03:19:58;27.15;;;19.90;;
6937;SDS011;40040;42.706;23.372;2023-07-31T03:22:25;24.00;;;19.83;;
6937;SDS011;40040;42.706;23.372;2023-07-31T03:24:53;21.65;;;18.33;;
6937;SDS011;40040;42.706;23.372;2023-07-31T03:27:20;24.50;;;20.15;;
6937;SDS011;40040;42.706;23.372;2023-07-31T03:29:47;23.35;;;19.70;;
6937;SDS011;40040;42.706;23.372;2023-07-31T03:32:15;25.17;;;19.27;;
6937;SDS011;40040;42.706;23.372;2023-07-31T03:34:41;25.13;;;19.33;;
6937;SDS011;40040;42.706;23.372;2023-07-31T03:37:08;23.25;;;19.40;;
6937;SDS011;40040;42.706;23.372;2023-07-31T03:39:35;23.80;;;19.58;;
6937;SDS011;40040;42.706;23.372;2023-07-31T03:42:03;25.23;;;19.25;;
6937;SDS011;40040;42.706;23.372;2023-07-31T03:44:31;25.10;;;19.73;;
6937;SDS011;40040;42.706;23.372;2023-07-31T03:46:58;25.65;;;19.80;;
6937;SDS011;40040;42.706;23.372;2023-07-31T03:49:25;24.25;;;20.17;;
6937;SDS011;40040;42.706;23.372;2023-07-31T03:51:51;24.02;;;19.70;;
6937;SDS011;40040;42.706;23.372;2023-07-31T03:54:20;25.42;;;20.48;;
6937;SDS011;40040;42.706;23.372;2023-07-31T03:56:47;26.73;;;20.05;;
6937;SDS011;40040;42.706;23.372;2023-07-31T03:59:15;25.65;;;20.65;;
6937;SDS011;40040;42.706;23.372;2023-07-31T04:01:42;26.17;;;20.65;;
6937;SDS011;40040;42.706;23.372;2023-07-31T04:04:08;24.60;;;20.52;;
6937;SDS011;40040;42.706;23.372;2023-07-31T04:06:35;26.05;;;20.35;;
6937;SDS011;40040;42.706;23.372;2023-07-31T04:09:02;26.27;;;19.95;;
6937;SDS011;40040;42.706;23.372;2023-07-31T04:11:29;26.05;;;20.25;;
6937;SDS011;40040;42.706;23.372;2023-07-31T04:13:56;26.67;;;19.90;;
6937;SDS011;40040;42.706;23.372;2023-07-31T04:16:24;26.85;;;20.58;;
6937;SDS011;40040;42.706;23.372;2023-07-31T04:18:51;27.67;;;20.85;;
6937;SDS011;40040;42.706;23.372;2023-07-31T04:21:17;26.80;;;19.92;;
6937;SDS011;40040;42.706;23.372;2023-07-31T04:23:44;26.83;;;20.83;;
6937;SDS011;40040;42.706;23.372;2023-07-31T04:26:11;27.92;;;20.52;;
6937;SDS011;40040;42.706;23.372;2023-07-31T04:28:38;29.95;;;20.92;;
6937;SDS011;40040;42.706;23.372;2023-07-31T04:31:05;28.23;;;20.98;;
6937;SDS011;40040;42.706;23.372;2023-07-31T04:33:33;30.42;;;20.10;;
6937;SDS011;40040;42.706;23.372;2023-07-31T04:35:59;26.42;;;20.05;;
6937;SDS011;40040;42.706;23.372;2023-07-31T04:38:26;27.45;;;20.48;;
6937;SDS011;40040;42.706;23.372;2023-07-31T04:40:53;28.98;;;21.15;;
6937;SDS011;40040;42.706;23.372;2023-07-31T04:43:20;25.83;;;20.20;;
6937;SDS011;40040;42.706;23.372;2023-07-31T04:45:47;26.23;;;20.65;;
6937;SDS011;40040;42.706;23.372;2023-07-31T04:48:15;26.02;;;20.23;;
6937;SDS011;40040;42.706;23.372;2023-07-31T04:50:43;27.15;;;20.10;;
6937;SDS011;40040;42.706;23.372;2023-07-31T04:53:10;25.90;;;19.83;;
6937;SDS011;40040;42.706;23.372;2023-07-31T04:55:37;24.67;;;19.77;;
6937;SDS011;40040;42.706;23.372;2023-07-31T04:58:04;27.45;;;20.88;;
6937;SDS011;40040;42.706;23.372;2023-07-31T05:00:31;24.60;;;19.00;;
6937;SDS011;40040;42.706;23.372;2023-07-31T05:02:58;24.17;;;19.10;;
6937;SDS011;40040;42.706;23.372;2023-07-31T05:05:25;24.33;;;19.52;;
6937;SDS011;40040;42.706;23.372;2023-07-31T05:07:53;26.55;;;20.33;;
6937;SDS011;40040;42.706;23.372;2023-07-31T05:10:20;27.35;;;19.90;;
6937;SDS011;40040;42.706;23.372;2023-07-31T05:12:47;25.90;;;19.33;;
6937;SDS011;40040;42.706;23.372;2023-07-31T05:15:13;24.52;;;18.95;;
6937;SDS011;40040;42.706;23.372;2023-07-31T05:17:40;24.70;;;19.55;;
6937;SDS011;40040;42.706;23.372;2023-07-31T05:20:07;25.45;;;19.70;;
6937;SDS011;40040;42.706;23.372;2023-07-31T05:22:35;24.70;;;19.67;;
6937;SDS011;40040;42.706;23.372;2023-07-31T05:25:03;24.38;;;19.02;;
6937;SDS011;40040;42.706;23.372;2023-07-31T05:27:30;23.52;;;18.30;;
6937;SDS011;40040;42.706;23.372;2023-07-31T05:29:57;21.55;;;18.10;;
6937;SDS011;40040;42.706;23.372;2023-07-31T05:32:24;21.15;;;17.55;;
6937;SDS011;40040;42.706;23.372;2023-07-31T05:34:51;19.92;;;16.60;;
6937;SDS011;40040;42.706;23.372;2023-07-31T05:37:18;22.35;;;18.08;;
6937;SDS011;40040;42.706;23.372;2023-07-31T05:39:45;20.92;;;16.48;;
6937;SDS011;40040;42.706;23.372;2023-07-31T05:42:13;21.88;;;17.05;;
6937;SDS011;40040;42.706;23.372;2023-07-31T05:44:40;20.45;;;16.50;;
6937;SDS011;40040;42.706;23.372;2023-07-31T05:47:07;18.60;;;16.00;;
6937;SDS011;40040;42.706;23.372;2023-07-31T05:49:34;19.13;;;14.88;;
6937;SDS011;40040;42.706;23.372;2023-07-31T05:52:01;17.45;;;15.25;;
6937;SDS011;40040;42.706;23.372;2023-07-31T05:54:27;17.35;;;14.35;;
6937;SDS011;40040;42.706;23.372;2023-07-31T05:56:54;14.27;;;12.77;;
6937;SDS011;40040;42.706;23.372;2023-07-31T05:59:23;14.60;;;13.02;;
6937;SDS011;40040;42.706;23.372;2023-07-31T06:01:49;14.48;;;12.98;;
6937;SDS011;40040;42.706;23.372;2023-07-31T06:04:16;15.00;;;12.90;;
6937;SDS011;40040;42.706;23.372;2023-07-31T06:06:43;15.15;;;12.40;;
6937;SDS011;40040;42.706;23.372;2023-07-31T06:09:10;13.52;;;12.10;;
6937;SDS011;40040;42.706;23.372;2023-07-31T06:11:37;13.40;;;12.00;;
6937;SDS011;40040;42.706;23.372;2023-07-31T06:14:04;12.25;;;10.95;;
6937;SDS011;40040;42.706;23.372;2023-07-31T06:16:32;12.07;;;10.88;;
6937;SDS011;40040;42.706;23.372;2023-07-31T06:18:59;11.35;;;10.32;;
6937;SDS011;40040;42.706;23.372;2023-07-31T06:21:25;12.30;;;9.77;;
6937;SDS011;40040;42.706;23.372;2023-07-31T06:23:52;10.13;;;9.13;;
6937;SDS011;40040;42.706;23.372;2023-07-31T06:26:19;10.23;;;9.07;;
6937;SDS011;40040;42.706;23.372;2023-07-31T06:28:46;9.50;;;8.60;;
6937;SDS011;40040;42.706;23.372;2023-07-31T06:31:13;8.95;;;8.05;;
6937;SDS011;40040;42.706;23.372;2023-07-31T06:33:41;8.82;;;7.93;;
6937;SDS011;40040;42.706;23.372;2023-07-31T06:36:08;8.38;;;7.63;;
6937;SDS011;40040;42.706;23.372;2023-07-31T06:38:35;8.15;;;7.47;;
6937;SDS011;40040;42.706;23.372;2023-07-31T06:41:02;8.20;;;7.50;;
6937;SDS011;40040;42.706;23.372;2023-07-31T06:43:30;7.80;;;7.00;;
6937;SDS011;40040;42.706;23.372;2023-07-31T06:45:57;8.13;;;7.38;;
6937;SDS011;40040;42.706;23.372;2023-07-31T06:48:23;8.30;;;7.60;;
6937;SDS011;40040;42.706;23.372;2023-07-31T06:50:52;7.75;;;6.90;;
6937;SDS011;40040;42.706;23.372;2023-07-31T06:53:18;7.07;;;6.55;;
6937;SDS011;40040;42.706;23.372;2023-07-31T06:55:45;7.63;;;6.82;;
6937;SDS011;40040;42.706;23.372;2023-07-31T06:58:13;6.90;;;6.30;;
6937;SDS011;40040;42.706;23.372;2023-07-31T07:00:40;7.97;;;6.43;;
6937;SDS011;40040;42.706;23.372;2023-07-31T07:03:06;6.60;;;6.00;;
6937;SDS011;40040;42.706;23.372;2023-07-31T07:05:33;6.85;;;5.45;;
6937;SDS011;40040;42.706;23.372;2023-07-31T07:08:01;8.10;;;5.93;;
6937;SDS011;40040;42.706;23.372;2023-07-31T07:10:28;6.45;;;5.95;;
6937;SDS011;40040;42.706;23.372;2023-07-31T07:12:55;6.90;;;6.30;;
6937;SDS011;40040;42.706;23.372;2023-07-31T07:15:22;6.18;;;5.68;;
6937;SDS011;40040;42.706;23.372;2023-07-31T07:17:49;6.45;;;5.95;;
6937;SDS011;40040;42.706;23.372;2023-07-31T07:20:15;6.45;;;5.85;;
6937;SDS011;40040;42.706;23.372;2023-07-31T07:22:42;6.03;;;5.63;;
6937;SDS011;40040;42.706;23.372;2023-07-31T07:25:11;9.35;;;5.82;;
6937;SDS011;40040;42.706;23.372;2023-07-31T07:27:38;6.00;;;5.38;;
6937;SDS011;40040;42.706;23.372;2023-07-31T07:30:05;5.72;;;5.30;;
6937;SDS011;40040;42.706;23.372;2023-07-31T07:32:33;5.50;;;5.10;;
6937;SDS011;40040;42.706;23.372;2023-07-31T07:34:59;5.85;;;5.22;;
6937;SDS011;40040;42.706;23.372;2023-07-31T07:37:26;5.78;;;5.18;;
6937;SDS011;40040;42.706;23.372;2023-07-31T07:39:53;4.90;;;4.50;;
6937;SDS011;40040;42.706;23.372;2023-07-31T07:42:21;6.15;;;5.18;;
6937;SDS011;40040;42.706;23.372;2023-07-31T07:44:48;5.20;;;4.80;;
6937;SDS011;40040;42.706;23.372;2023-07-31T07:47:15;5.50;;;5.10;;
6937;SDS011;40040;42.706;23.372;2023-07-31T07:49:42;5.72;;;5.10;;
6937;SDS011;40040;42.706;23.372;2023-07-31T07:52:09;5.40;;;5.00;;
6937;SDS011;40040;42.706;23.372;2023-07-31T07:54:35;4.60;;;4.30;;
6937;SDS011;40040;42.706;23.372;2023-07-31T07:57:02;5.13;;;4.68;;
6937;SDS011;40040;42.706;23.372;2023-07-31T07:59:31;4.43;;;4.22;;
6937;SDS011;40040;42.706;23.372;2023-07-31T08:01:58;4.70;;;4.30;;
6937;SDS011;40040;42.706;23.372;2023-07-31T08:04:24;5.95;;;4.20;;
6937;SDS011;40040;42.706;23.372;2023-07-31T08:06:51;4.68;;;4.47;;
6937;SDS011;40040;42.706;23.372;2023-07-31T08:09:18;4.90;;;4.38;;
6937;SDS011;40040;42.706;23.372;2023-07-31T08:11:45;4.82;;;4.32;;
6937;SDS011;40040;42.706;23.372;2023-07-31T08:14:12;4.82;;;4.43;;
6937;SDS011;40040;42.706;23.372;2023-07-31T08:16:40;4.30;;;4.00;;
6937;SDS011;40040;42.706;23.372;2023-07-31T08:19:07;4.70;;;4.40;;
6937;SDS011;40040;42.706;23.372;2023-07-31T08:21:33;4.85;;;4.45;;
6937;SDS011;40040;42.706;23.372;2023-07-31T08:24:00;4.25;;;4.05;;
6937;SDS011;40040;42.706;23.372;2023-07-31T08:26:27;4.38;;;4.07;;
6937;SDS011;40040;42.706;23.372;2023-07-31T08:28:54;4.72;;;4.40;;
6937;SDS011;40040;42.706;23.372;2023-07-31T08:31:20;4.90;;;4.50;;
6937;SDS011;40040;42.706;23.372;2023-07-31T08:33:48;3.83;;;3.70;;
6937;SDS011;40040;42.706;23.372;2023-07-31T08:36:15;4.35;;;4.05;;
6937;SDS011;40040;42.706;23.372;2023-07-31T08:38:42;4.35;;;4.05;;
6937;SDS011;40040;42.706;23.372;2023-07-31T08:41:09;4.03;;;3.83;;
6937;SDS011;40040;42.706;23.372;2023-07-31T08:43:35;4.57;;;4.05;;
6937;SDS011;40040;42.706;23.372;2023-07-31T08:46:04;4.60;;;4.20;;
6937;SDS011;40040;42.706;23.372;2023-07-31T08:48:31;4.97;;;4.50;;
6937;SDS011;40040;42.706;23.372;2023-07-31T08:50:59;3.90;;;3.70;;
6937;SDS011;40040;42.706;23.372;2023-07-31T08:53:26;4.65;;;4.25;;
6937;SDS011;40040;42.706;23.372;2023-07-31T08:55:53;4.70;;;4.30;;
6937;SDS011;40040;42.706;23.372;2023-07-31T08:58:21;4.47;;;4.18;;
6937;SDS011;40040;42.706;23.372;2023-07-31T09:00:50;4.25;;;3.95;;
6937;SDS011;40040;42.706;23.372;2023-07-31T09:03:18;4.15;;;3.85;;
6937;SDS011;40040;42.706;23.372;2023-07-31T09:05:46;4.10;;;3.80;;
6937;SDS011;40040;42.706;23.372;2023-07-31T09:08:15;4.35;;;3.80;;
6937;SDS011;40040;42.706;23.372;2023-07-31T09:10:46;4.38;;;4.10;;
6937;SDS011;40040;42.706;23.372;2023-07-31T09:13:15;4.05;;;3.85;;
6937;SDS011;40040;42.706;23.372;2023-07-31T09:15:43;3.83;;;3.63;;
6937;SDS011;40040;42.706;23.372;2023-07-31T09:18:10;3.88;;;3.58;;
6937;SDS011;40040;42.706;23.372;2023-07-31T09:20:39;3.80;;;3.50;;
6937;SDS011;40040;42.706;23.372;2023-07-31T09:23:06;3.88;;;3.65;;
6937;SDS011;40040;42.706;23.372;2023-07-31T09:25:36;3.47;;;3.28;;
6937;SDS011;40040;42.706;23.372;2023-07-31T09:28:04;3.80;;;3.60;;
6937;SDS011;40040;42.706;23.372;2023-07-31T09:30:41;3.70;;;3.53;;
6937;SDS011;40040;42.706;23.372;2023-07-31T09:33:11;3.90;;;3.58;;
6937;SDS011;40040;42.706;23.372;2023-07-31T09:35:38;3.78;;;3.58;;
6937;SDS011;40040;42.706;23.372;2023-07-31T09:38:06;4.65;;;4.35;;
6937;SDS011;40040;42.706;23.372;2023-07-31T09:40:37;3.80;;;3.60;;
6937;SDS011;40040;42.706;23.372;2023-07-31T09:43:05;4.03;;;3.70;;
6937;SDS011;40040;42.706;23.372;2023-07-31T09:45:33;3.88;;;3.58;;
6937;SDS011;40040;42.706;23.372;2023-07-31T09:48:02;3.40;;;3.20;;
6937;SDS011;40040;42.706;23.372;2023-07-31T09:50:29;3.42;;;3.30;;
6937;SDS011;40040;42.706;23.372;2023-07-31T09:52:56;3.58;;;3.47;;
6937;SDS011;40040;42.706;23.372;2023-07-31T09:55:23;3.17;;;3.08;;
6937;SDS011;40040;42.706;23.372;2023-07-31T09:57:51;3.10;;;3.00;;
6937;SDS011;40040;42.706;23.372;2023-07-31T10:00:21;3.10;;;2.88;;
6937;SDS011;40040;42.706;23.372;2023-07-31T10:02:50;2.90;;;2.80;;
6937;SDS011;40040;42.706;23.372;2023-07-31T10:05:19;3.45;;;3.25;;
6937;SDS011;40040;42.706;23.372;2023-07-31T10:07:49;3.22;;;3.00;;
6937;SDS011;40040;42.706;23.372;2023-07-31T10:10:20;2.80;;;2.70;;
6937;SDS011;40040;42.706;23.372;2023-07-31T10:12:47;2.70;;;2.60;;
6937;SDS011;40040;42.706;23.372;2023-07-31T10:15:16;2.50;;;2.40;;
6937;SDS011;40040;42.706;23.372;2023-07-31T10:17:45;2.90;;;2.80;;
6937;SDS011;40040;42.706;23.372;2023-07-31T10:20:13;2.80;;;2.70;;
6937;SDS011;40040;42.706;23.372;2023-07-31T10:22:41;3.10;;;2.90;;
6937;SDS011;40040;42.706;23.372;2023-07-31T10:25:08;2.67;;;2.40;;
6937;SDS011;40040;42.706;23.372;2023-07-31T10:27:36;2.42;;;2.42;;
6937;SDS011;40040;42.706;23.372;2023-07-31T10:30:05;2.70;;;2.60;;
6937;SDS011;40040;42.706;23.372;2023-07-31T10:32:37;2.80;;;2.70;;
6937;SDS011;40040;42.706;23.372;2023-07-31T10:35:07;2.78;;;2.47;;
6937;SDS011;40040;42.706;23.372;2023-07-31T10:37:38;2.50;;;2.30;;
6937;SDS011;40040;42.706;23.372;2023-07-31T10:40:09;2.80;;;2.60;;
6937;SDS011;40040;42.706;23.372;2023-07-31T10:42:37;2.50;;;2.38;;
6937;SDS011;40040;42.706;23.372;2023-07-31T10:45:12;2.90;;;2.80;;
6937;SDS011;40040;42.706;23.372;2023-07-31T10:47:43;2.50;;;2.38;;
6937;SDS011;40040;42.706;23.372;2023-07-31T10:50:16;2.53;;;2.47;;
6937;SDS011;40040;42.706;23.372;2023-07-31T10:52:48;2.88;;;2.70;;
6937;SDS011;40040;42.706;23.372;2023-07-31T10:55:24;2.60;;;2.50;;
6937;SDS011;40040;42.706;23.372;2023-07-31T10:57:56;2.78;;;2.60;;
6937;SDS011;40040;42.706;23.372;2023-07-31T11:00:25;2.85;;;2.75;;
6937;SDS011;40040;42.706;23.372;2023-07-31T11:02:58;2.55;;;2.45;;
6937;SDS011;40040;42.706;23.372;2023-07-31T11:05:49;2.20;;;2.20;;
6937;SDS011;40040;42.706;23.372;2023-07-31T11:08:19;3.33;;;2.40;;
6937;SDS011;40040;42.706;23.372;2023-07-31T11:10:48;2.60;;;2.50;;
6937;SDS011;40040;42.706;23.372;2023-07-31T11:13:17;2.25;;;2.15;;
6937;SDS011;40040;42.706;23.372;2023-07-31T11:15:44;2.25;;;2.15;;
6937;SDS011;40040;42.706;23.372;2023-07-31T11:18:12;2.22;;;2.22;;
6937;SDS011;40040;42.706;23.372;2023-07-31T11:20:40;2.22;;;2.10;;
6937;SDS011;40040;42.706;23.372;2023-07-31T11:23:08;2.42;;;2.20;;
6937;SDS011;40040;42.706;23.372;2023-07-31T11:25:35;2.45;;;2.35;;
6937;SDS011;40040;42.706;23.372;2023-07-31T11:28:03;2.28;;;2.28;;
6937;SDS011;40040;42.706;23.372;2023-07-31T11:30:31;2.20;;;2.10;;
6937;SDS011;40040;42.706;23.372;2023-07-31T11:32:59;2.20;;;2.10;;
6937;SDS011;40040;42.706;23.372;2023-07-31T11:35:31;2.67;;;2.33;;
6937;SDS011;40040;42.706;23.372;2023-07-31T11:37:59;2.25;;;2.15;;
6937;SDS011;40040;42.706;23.372;2023-07-31T11:40:26;2.45;;;2.00;;
6937;SDS011;40040;42.706;23.372;2023-07-31T11:42:55;2.13;;;2.03;;
6937;SDS011;40040;42.706;23.372;2023-07-31T11:45:24;2.28;;;2.28;;
6937;SDS011;40040;42.706;23.372;2023-07-31T11:47:54;3.17;;;2.80;;
6937;SDS011;40040;42.706;23.372;2023-07-31T11:50:22;3.28;;;2.95;;
6937;SDS011;40040;42.706;23.372;2023-07-31T11:52:52;3.15;;;2.95;;
6937;SDS011;40040;42.706;23.372;2023-07-31T11:55:23;4.88;;;3.10;;
6937;SDS011;40040;42.706;23.372;2023-07-31T11:57:50;2.90;;;2.70;;
6937;SDS011;40040;42.706;23.372;2023-07-31T12:00:18;2.83;;;2.72;;
6937;SDS011;40040;42.706;23.372;2023-07-31T12:02:46;2.55;;;2.45;;
6937;SDS011;40040;42.706;23.372;2023-07-31T12:05:13;2.40;;;2.40;;
6937;SDS011;40040;42.706;23.372;2023-07-31T12:07:47;3.00;;;2.78;;
6937;SDS011;40040;42.706;23.372;2023-07-31T12:10:26;2.80;;;2.70;;
6937;SDS011;40040;42.706;23.372;2023-07-31T12:12:58;2.85;;;2.75;;
6937;SDS011;40040;42.706;23.372;2023-07-31T12:15:32;2.97;;;2.80;;
6937;SDS011;40040;42.706;23.372;2023-07-31T12:18:00;3.13;;;3.03;;
6937;SDS011;40040;42.706;23.372;2023-07-31T12:20:27;3.40;;;3.30;;
6937;SDS011;40040;42.706;23.372;2023-07-31T12:22:56;4.22;;;3.90;;
6937;SDS011;40040;42.706;23.372;2023-07-31T12:25:29;5.07;;;4.68;;
6937;SDS011;40040;42.706;23.372;2023-07-31T12:27:57;6.00;;;5.43;;
6937;SDS011;40040;42.706;23.372;2023-07-31T12:30:27;5.43;;;4.90;;
6937;SDS011;40040;42.706;23.372;2023-07-31T12:32:55;5.38;;;5.07;;
6937;SDS011;40040;42.706;23.372;2023-07-31T12:35:22;5.35;;;4.95;;
6937;SDS011;40040;42.706;23.372;2023-07-31T12:37:49;5.60;;;5.10;;
6937;SDS011;40040;42.706;23.372;2023-07-31T12:40:15;6.03;;;5.50;;
6937;SDS011;40040;42.706;23.372;2023-07-31T12:42:44;5.55;;;5.13;;
6937;SDS011;40040;42.706;23.372;2023-07-31T12:45:11;6.30;;;5.50;;
6937;SDS011;40040;42.706;23.372;2023-07-31T12:47:37;6.60;;;5.93;;
6937;SDS011;40040;42.706;23.372;2023-07-31T12:50:05;5.70;;;5.22;;
6937;SDS011;40040;42.706;23.372;2023-07-31T12:52:32;6.10;;;5.60;;
6937;SDS011;40040;42.706;23.372;2023-07-31T12:54:59;5.90;;;5.47;;
6937;SDS011;40040;42.706;23.372;2023-07-31T12:57:26;6.25;;;5.75;;
6937;SDS011;40040;42.706;23.372;2023-07-31T12:59:54;6.60;;;6.00;;
6937;SDS011;40040;42.706;23.372;2023-07-31T13:02:21;7.25;;;6.55;;
6937;SDS011;40040;42.706;23.372;2023-07-31T13:04:48;7.15;;;6.53;;
6937;SDS011;40040;42.706;23.372;2023-07-31T13:07:16;6.15;;;5.55;;
6937;SDS011;40040;42.706;23.372;2023-07-31T13:09:43;7.03;;;6.43;;
6937;SDS011;40040;42.706;23.372;2023-07-31T13:12:09;6.57;;;5.90;;
6937;SDS011;40040;42.706;23.372;2023-07-31T13:14:36;6.70;;;6.20;;
6937;SDS011;40040;42.706;23.372;2023-07-31T13:17:04;7.22;;;6.63;;
6937;SDS011;40040;42.706;23.372;2023-07-31T13:19:31;6.50;;;6.00;;
6937;SDS011;40040;42.706;23.372;2023-07-31T13:21:58;6.07;;;5.57;;
6937;SDS011;40040;42.706;23.372;2023-07-31T13:24:25;5.85;;;5.45;;
6937;SDS011;40040;42.706;23.372;2023-07-31T13:26:52;5.95;;;5.47;;
6937;SDS011;40040;42.706;23.372;2023-07-31T13:29:18;6.45;;;5.80;;
6937;SDS011;40040;42.706;23.372;2023-07-31T13:31:47;6.20;;;5.70;;
6937;SDS011;40040;42.706;23.372;2023-07-31T13:34:15;9.70;;;5.95;;
6937;SDS011;40040;42.706;23.372;2023-07-31T13:36:41;5.60;;;5.20;;
6937;SDS011;40040;42.706;23.372;2023-07-31T13:39:08;5.93;;;5.40;;
6937;SDS011;40040;42.706;23.372;2023-07-31T13:41:35;6.45;;;5.05;;
6937;SDS011;40040;42.706;23.372;2023-07-31T13:44:02;5.22;;;4.93;;
6937;SDS011;40040;42.706;23.372;2023-07-31T13:46:29;5.50;;;5.10;;
6937;SDS011;40040;42.706;23.372;2023-07-31T13:48:57;6.63;;;5.28;;
6937;SDS011;40040;42.706;23.372;2023-07-31T13:51:26;5.22;;;4.90;;
6937;SDS011;40040;42.706;23.372;2023-07-31T13:53:53;5.70;;;5.30;;
6937;SDS011;40040;42.706;23.372;2023-07-31T13:56:20;5.35;;;4.97;;
6937;SDS011;40040;42.706;23.372;2023-07-31T13:58:47;5.53;;;5.13;;
6937;SDS011;40040;42.706;23.372;2023-07-31T14:01:14;5.20;;;4.75;;
6937;SDS011;40040;42.706;23.372;2023-07-31T14:03:41;5.55;;;5.18;;
6937;SDS011;40040;42.706;23.372;2023-07-31T14:06:07;5.88;;;5.47;;
6937;SDS011;40040;42.706;23.372;2023-07-31T14:08:36;5.13;;;4.72;;
6937;SDS011;40040;42.706;23.372;2023-07-31T14:11:02;5.63;;;5.10;;
6937;SDS011;40040;42.706;23.372;2023-07-31T14:13:29;5.50;;;5.15;;
6937;SDS011;40040;42.706;23.372;2023-07-31T14:15:56;5.57;;;5.10;;
6937;SDS011;40040;42.706;23.372;2023-07-31T14:18:23;5.25;;;4.95;;
6937;SDS011;40040;42.706;23.372;2023-07-31T14:20:49;5.72;;;5.25;;
6937;SDS011;40040;42.706;23.372;2023-07-31T14:23:16;6.03;;;5.53;;
6937;SDS011;40040;42.706;23.372;2023-07-31T14:25:46;6.22;;;5.72;;
6937;SDS011;40040;42.706;23.372;2023-07-31T14:28:13;5.28;;;4.97;;
6937;SDS011;40040;42.706;23.372;2023-07-31T14:30:40;5.00;;;4.70;;
6937;SDS011;40040;42.706;23.372;2023-07-31T14:33:07;4.93;;;4.63;;
6937;SDS011;40040;42.706;23.372;2023-07-31T14:35:33;5.25;;;4.95;;
6937;SDS011;40040;42.706;23.372;2023-07-31T14:38:01;5.22;;;4.72;;
6937;SDS011;40040;42.706;23.372;2023-07-31T14:40:28;4.82;;;4.43;;